createdAt,value
2023-01-19T00:00:54.878Z,14.67
2023-01-19T00:03:21.715Z,12.50
2023-01-19T00:05:48.512Z,15.03
2023-01-19T00:08:17.697Z,13.83
2023-01-19T00:10:49.310Z,16.20
2023-01-19T00:13:16.040Z,14.97
2023-01-19T00:15:50.454Z,13.00
2023-01-19T00:18:17.269Z,14.00
2023-01-19T00:20:46.359Z,12.23
2023-01-19T00:23:13.804Z,13.00
2023-01-19T00:25:51.082Z,12.37
2023-01-19T00:28:19.924Z,14.80
2023-01-19T00:30:55.731Z,13.70
2023-01-19T00:33:22.442Z,13.83
2023-01-19T00:35:55.002Z,15.93
2023-01-19T00:38:23.902Z,16.00
2023-01-19T00:40:50.473Z,14.33
2023-01-19T00:43:17.134Z,15.43
2023-01-19T00:45:45.395Z,14.57
2023-01-19T00:48:12.048Z,13.63
2023-01-19T00:50:41.162Z,12.67
2023-01-19T00:53:07.798Z,17.10
2023-01-19T00:55:34.476Z,17.03
2023-01-19T00:58:02.812Z,15.77
2023-01-19T01:00:29.815Z,12.80
2023-01-19T01:02:59.185Z,16.63
2023-01-19T01:05:26.006Z,18.13
2023-01-19T01:07:52.693Z,18.60
2023-01-19T01:10:22.192Z,11.77
2023-01-19T01:12:56.339Z,14.70
2023-01-19T01:15:26.312Z,18.20
2023-01-19T01:17:53.004Z,18.97
2023-01-19T01:20:27.195Z,15.83
2023-01-19T01:22:54.929Z,13.70
2023-01-19T01:25:23.626Z,17.33
2023-01-19T01:27:51.160Z,14.80
2023-01-19T01:30:21.196Z,14.83
2023-01-19T01:32:48.056Z,16.97
2023-01-19T01:35:22.348Z,15.73
2023-01-19T01:37:49.103Z,17.90
2023-01-19T01:40:19.280Z,18.50
2023-01-19T01:42:48.449Z,17.03
2023-01-19T01:45:25.576Z,19.57
2023-01-19T01:47:53.223Z,15.60
2023-01-19T01:50:25.726Z,14.67
2023-01-19T01:53:33.920Z,13.53
2023-01-19T01:56:09.829Z,22.97
2023-01-19T01:58:45.602Z,14.83
2023-01-19T02:01:31.126Z,17.23
2023-01-19T02:03:58.628Z,18.17
2023-01-19T02:06:32.709Z,20.80
2023-01-19T02:09:22.009Z,18.97
2023-01-19T02:12:07.638Z,18.00
2023-01-19T02:14:37.362Z,18.30
2023-01-19T02:17:04.287Z,18.93
2023-01-19T02:19:35.738Z,16.73
2023-01-19T02:22:12.426Z,17.13
2023-01-19T02:24:39.211Z,18.17
2023-01-19T02:27:07.216Z,19.93
2023-01-19T02:29:34.240Z,15.80
2023-01-19T02:32:02.309Z,16.03
2023-01-19T02:34:37.991Z,16.63
2023-01-19T02:37:18.649Z,15.50
2023-01-19T02:40:16.789Z,19.27
2023-01-19T02:42:53.256Z,14.73
2023-01-19T02:45:21.241Z,16.33
2023-01-19T02:47:51.067Z,19.47
2023-01-19T02:50:36.387Z,17.00
2023-01-19T02:53:17.732Z,14.47
2023-01-19T02:55:51.680Z,16.33
2023-01-19T02:58:25.486Z,21.00
2023-01-19T03:01:18.188Z,18.43
2023-01-19T03:04:13.465Z,19.73
2023-01-19T03:06:59.143Z,20.73
2023-01-19T03:09:33.058Z,19.37
2023-01-19T03:12:09.660Z,16.87
2023-01-19T03:14:41.848Z,26.17
2023-01-19T03:17:10.771Z,20.70
2023-01-19T03:19:42.749Z,20.33
2023-01-19T03:22:13.079Z,17.90
2023-01-19T03:24:43.308Z,18.63
2023-01-19T03:27:40.849Z,23.03
2023-01-19T03:30:18.576Z,16.47
2023-01-19T03:32:50.119Z,19.37
2023-01-19T03:35:21.930Z,17.87
2023-01-19T03:37:54.600Z,23.00
2023-01-19T03:40:21.709Z,20.20
2023-01-19T03:42:49.704Z,14.70
2023-01-19T03:45:19.384Z,18.90
2023-01-19T03:47:48.760Z,20.63
2023-01-19T03:50:24.564Z,16.23
2023-01-19T03:53:05.662Z,16.10
2023-01-19T03:55:32.708Z,19.97
2023-01-19T03:57:59.333Z,18.13
2023-01-19T04:00:26.072Z,19.20
2023-01-19T04:02:52.792Z,19.37
2023-01-19T04:05:25.470Z,24.63
2023-01-19T04:07:52.603Z,20.63
2023-01-19T04:10:19.732Z,18.83
2023-01-19T04:12:48.647Z,19.93
2023-01-19T04:15:23.152Z,17.20
2023-01-19T04:17:49.796Z,16.90
2023-01-19T04:20:20.066Z,22.07
2023-01-19T04:22:49.114Z,20.00
2023-01-19T04:25:24.703Z,18.80
2023-01-19T04:27:58.189Z,19.57
2023-01-19T04:30:25.413Z,16.53
2023-01-19T04:32:52.097Z,16.00
2023-01-19T04:35:18.732Z,16.90
2023-01-19T04:37:48.354Z,18.67
2023-01-19T04:40:22.299Z,15.80
2023-01-19T04:42:48.924Z,18.63
2023-01-19T04:45:17.736Z,15.60
2023-01-19T04:47:49.736Z,22.13
2023-01-19T04:50:19.608Z,18.10
2023-01-19T04:52:49.602Z,20.40
2023-01-19T04:55:19.813Z,16.00
2023-01-19T04:57:48.958Z,17.10
2023-01-19T05:00:18.475Z,13.80
2023-01-19T05:02:48.447Z,15.00
2023-01-19T05:05:17.976Z,18.07
2023-01-19T05:07:44.760Z,17.10
2023-01-19T05:10:21.883Z,25.90
2023-01-19T05:12:48.753Z,21.77
2023-01-19T05:15:18.285Z,17.23
2023-01-19T05:17:52.930Z,23.23
2023-01-19T05:20:19.562Z,13.53
2023-01-19T05:22:50.700Z,14.40
2023-01-19T05:25:26.415Z,17.53
2023-01-19T05:27:53.024Z,17.70
2023-01-19T05:30:19.644Z,16.67
2023-01-19T05:32:46.523Z,17.90
2023-01-19T05:35:20.146Z,15.73
2023-01-19T05:37:51.767Z,17.80
2023-01-19T05:40:22.553Z,23.27
2023-01-19T05:42:49.247Z,13.13
2023-01-19T05:45:15.956Z,20.73
2023-01-19T05:50:23.111Z,15.00
2023-01-19T05:52:55.636Z,14.87
2023-01-19T05:55:29.978Z,19.93
2023-01-19T05:57:56.580Z,17.63
2023-01-19T06:00:23.492Z,16.30
2023-01-19T06:02:50.258Z,17.30
2023-01-19T06:05:20.359Z,17.00
2023-01-19T06:07:49.551Z,14.40
2023-01-19T06:10:32.443Z,16.67
2023-01-19T06:12:59.512Z,18.57
2023-01-19T06:15:26.427Z,15.30
2023-01-19T06:18:00.145Z,15.00
2023-01-19T06:20:26.801Z,14.23
2023-01-19T06:22:57.017Z,12.37
2023-01-19T06:28:04.471Z,18.90
2023-01-19T06:30:33.614Z,12.50
2023-01-19T06:33:03.373Z,14.70
2023-01-19T06:35:30.085Z,14.20
2023-01-19T06:37:57.049Z,12.10
2023-01-19T06:40:44.149Z,12.63
2023-01-19T06:44:16.037Z,13.83
2023-01-19T06:46:42.768Z,15.30
2023-01-19T06:49:09.807Z,14.20
2023-01-19T06:51:41.983Z,14.07
2023-01-19T06:54:15.547Z,14.70
2023-01-19T06:56:42.319Z,16.67
2023-01-19T06:59:09.910Z,17.97
2023-01-19T07:01:59.072Z,13.90
2023-01-19T07:04:32.384Z,14.20
2023-01-19T07:07:19.660Z,15.87
2023-01-19T07:09:46.331Z,16.20
2023-01-19T07:12:14.806Z,18.23
2023-01-19T07:14:56.368Z,11.73
2023-01-19T07:17:29.582Z,14.03
2023-01-19T07:19:58.938Z,11.10
2023-01-19T07:22:28.001Z,13.07
2023-01-19T07:25:22.720Z,15.57
2023-01-19T07:27:52.959Z,12.63
2023-01-19T07:30:46.264Z,14.23
2023-01-19T07:33:12.985Z,11.57
2023-01-19T07:35:39.595Z,11.87
2023-01-19T07:38:06.161Z,11.67
2023-01-19T07:40:45.425Z,13.07
2023-01-19T07:43:40.249Z,13.77
2023-01-19T07:46:11.002Z,14.27
2023-01-19T07:48:43.849Z,12.40
2023-01-19T07:51:13.178Z,10.93
2023-01-19T07:53:50.472Z,9.53
2023-01-19T07:56:26.108Z,10.37
2023-01-19T07:58:52.934Z,12.60
2023-01-19T08:01:19.781Z,11.27
2023-01-19T08:03:55.828Z,9.73
2023-01-19T08:06:30.301Z,9.30
2023-01-19T08:09:00.125Z,10.90
2023-01-19T08:11:26.898Z,9.73
2023-01-19T08:13:53.774Z,12.97
2023-01-19T08:16:22.869Z,15.03
2023-01-19T08:19:05.754Z,10.07
2023-01-19T08:21:33.375Z,8.27
2023-01-19T08:24:50.513Z,11.27
2023-01-19T08:27:17.434Z,11.90
2023-01-19T08:29:55.961Z,9.43
2023-01-19T08:32:22.683Z,10.43
2023-01-19T08:34:49.335Z,10.97
2023-01-19T08:37:15.967Z,8.70
2023-01-19T08:39:42.600Z,10.83
2023-01-19T08:42:09.675Z,11.80
2023-01-19T08:44:37.860Z,9.93
2023-01-19T08:47:09.067Z,11.60
2023-01-19T08:49:44.012Z,12.10
2023-01-19T08:52:11.426Z,11.90
2023-01-19T08:54:38.013Z,11.77
2023-01-19T08:57:04.683Z,10.20
2023-01-19T08:59:31.437Z,11.00
2023-01-19T09:02:00.750Z,11.93
2023-01-19T09:04:34.614Z,12.03
2023-01-19T09:07:01.245Z,12.00
2023-01-19T09:10:31.313Z,13.60
2023-01-19T09:13:08.359Z,13.50
2023-01-19T09:15:43.427Z,12.27
2023-01-19T09:18:13.633Z,11.20
2023-01-19T09:20:42.703Z,11.93
2023-01-19T09:23:10.865Z,14.60
2023-01-19T09:25:38.645Z,14.27
2023-01-19T09:28:06.654Z,16.13
2023-01-19T09:30:33.855Z,13.30
2023-01-19T09:33:06.367Z,11.60
2023-01-19T09:35:33.983Z,11.10
2023-01-19T09:38:01.039Z,13.47
2023-01-19T09:40:28.495Z,14.50
2023-01-19T09:43:14.167Z,14.00
2023-01-19T09:46:01.345Z,14.37
2023-01-19T09:48:46.804Z,13.63
2023-01-19T09:51:16.761Z,12.03
2023-01-19T09:54:04.185Z,13.67
2023-01-19T09:56:32.286Z,12.27
2023-01-19T09:59:32.114Z,13.00
2023-01-19T10:02:29.915Z,14.73
2023-01-19T10:05:02.863Z,17.63
2023-01-19T10:07:54.729Z,13.50
2023-01-19T10:10:29.677Z,14.03
2023-01-19T10:13:25.874Z,15.63
2023-01-19T10:16:01.603Z,10.37
2023-01-19T10:18:51.620Z,12.20
2023-01-19T10:21:21.805Z,11.37
2023-01-19T10:24:06.749Z,13.03
2023-01-19T10:26:46.144Z,10.40
2023-01-19T10:29:19.956Z,11.97
2023-01-19T10:32:01.321Z,10.37
2023-01-19T10:34:41.627Z,20.47
2023-01-19T10:37:23.265Z,10.30
2023-01-19T10:39:56.145Z,12.70
2023-01-19T10:42:30.916Z,11.37
2023-01-19T10:44:57.554Z,11.00
2023-01-19T10:47:31.341Z,11.70
2023-01-19T10:50:00.984Z,11.83
2023-01-19T10:52:56.103Z,14.53
2023-01-19T10:55:43.088Z,12.27
2023-01-19T10:58:31.138Z,12.37
2023-01-19T11:01:22.863Z,10.90
2023-01-19T11:03:49.685Z,9.50
2023-01-19T11:06:26.760Z,12.47
2023-01-19T11:08:55.932Z,13.87
2023-01-19T11:12:08.654Z,11.00
2023-01-19T11:14:35.338Z,12.00
2023-01-19T11:17:02.014Z,8.00
2023-01-19T11:19:46.282Z,9.90
2023-01-19T11:22:30.655Z,8.90
2023-01-19T11:24:59.079Z,11.40
2023-01-19T11:28:46.220Z,11.00
2023-01-19T11:31:19.039Z,14.70
2023-01-19T11:33:54.124Z,8.90
2023-01-19T11:40:56.244Z,10.73
2023-01-19T11:43:49.086Z,10.40
2023-01-19T11:51:34.395Z,8.30
2023-01-19T11:54:53.962Z,15.50
2023-01-19T11:57:25.837Z,11.13
2023-01-19T11:59:52.518Z,14.03
2023-01-19T12:02:26.533Z,11.00
2023-01-19T12:13:50.024Z,15.87
2023-01-19T12:27:40.891Z,8.77
2023-01-19T12:30:25.080Z,8.37
2023-01-19T12:33:29.122Z,8.70
2023-01-19T12:36:43.499Z,14.57
2023-01-19T12:39:58.764Z,18.40
2023-01-19T12:42:26.741Z,13.90
2023-01-19T12:45:08.641Z,24.70
2023-01-19T12:48:19.267Z,12.83
2023-01-19T12:50:46.455Z,13.90
2023-01-19T12:53:19.935Z,15.43
2023-01-19T12:55:59.796Z,13.77
2023-01-19T12:58:26.871Z,13.27
2023-01-19T13:01:19.072Z,15.33
2023-01-19T13:03:58.604Z,15.87
2023-01-19T13:07:00.147Z,21.90
2023-01-19T13:09:35.755Z,13.80
2023-01-19T13:12:50.587Z,35.93
2023-01-19T13:15:40.889Z,17.83
2023-01-19T13:18:40.642Z,28.67
2023-01-19T13:21:49.670Z,17.10
2023-01-19T13:24:32.467Z,17.97
2023-01-19T13:27:21.173Z,16.77
2023-01-19T13:33:30.362Z,13.43
2023-01-19T13:43:33.516Z,17.43
2023-01-19T13:47:17.674Z,16.30
2023-01-19T13:49:51.692Z,14.50
2023-01-19T13:52:55.888Z,23.40
2023-01-19T13:59:35.359Z,32.53
2023-01-19T14:03:02.741Z,17.80
2023-01-19T14:06:28.161Z,15.63
2023-01-19T14:09:17.919Z,16.83
2023-01-19T14:12:20.252Z,10.60
2023-01-19T14:18:07.818Z,16.17
2023-01-19T14:20:37.102Z,16.13
2023-01-19T14:27:42.995Z,23.80
2023-01-19T14:30:28.133Z,22.70
2023-01-19T14:38:55.426Z,20.50
2023-01-19T14:41:44.768Z,15.80
2023-01-19T14:45:08.286Z,19.97
2023-01-19T14:47:42.804Z,19.63
2023-01-19T14:50:42.811Z,16.53
2023-01-19T14:54:08.784Z,21.37
2023-01-19T15:02:54.184Z,20.57
2023-01-19T15:05:23.515Z,24.53
2023-01-19T15:07:53.307Z,22.87
2023-01-19T15:10:23.755Z,21.43
2023-01-19T15:12:51.601Z,24.30
2023-01-19T15:15:28.409Z,22.63
2023-01-19T15:17:56.272Z,24.13
2023-01-19T15:20:23.432Z,25.00
2023-01-19T15:22:53.207Z,29.00
2023-01-19T15:26:21.224Z,26.70
2023-01-19T15:28:51.159Z,20.23
2023-01-19T15:32:14.222Z,24.63
2023-01-19T15:34:41.633Z,23.77
2023-01-19T15:37:08.607Z,27.07
2023-01-19T15:39:42.329Z,29.73
2023-01-19T15:42:15.975Z,26.73
2023-01-19T15:44:53.163Z,24.03
2023-01-19T15:47:20.277Z,22.23
2023-01-19T15:49:47.184Z,23.10
2023-01-19T15:52:14.953Z,24.70
2023-01-19T15:54:45.729Z,23.43
2023-01-19T15:57:13.403Z,21.17
2023-01-19T15:59:40.244Z,26.47
2023-01-19T16:02:14.295Z,27.10
2023-01-19T16:04:41.049Z,27.90
2023-01-19T16:07:07.692Z,28.97
2023-01-19T16:09:34.329Z,29.70
2023-01-19T16:12:03.449Z,25.63
2023-01-19T16:14:39.085Z,24.80
2023-01-19T16:17:05.910Z,28.80
2023-01-19T16:19:32.540Z,31.57
2023-01-19T16:22:06.801Z,33.93
2023-01-19T16:24:33.440Z,30.30
2023-01-19T16:27:00.556Z,25.50
2023-01-19T16:29:27.494Z,30.83
2023-01-19T16:31:54.290Z,31.70
2023-01-19T16:34:20.956Z,27.67
2023-01-19T16:36:47.821Z,26.40
2023-01-19T16:39:15.609Z,26.70
2023-01-19T16:41:43.584Z,39.37
2023-01-19T16:44:12.426Z,28.40
2023-01-19T16:46:41.277Z,36.43
2023-01-19T16:49:17.968Z,30.40
2023-01-19T16:51:44.981Z,33.97
2023-01-19T16:54:17.222Z,32.97
2023-01-19T16:56:43.931Z,29.97
2023-01-19T16:59:12.104Z,27.87
2023-01-19T17:01:42.034Z,28.50
2023-01-19T17:04:08.649Z,33.33
2023-01-19T17:06:35.318Z,26.70
2023-01-19T17:09:02.614Z,38.37
2023-01-19T17:11:31.207Z,38.23
2023-01-19T17:14:03.435Z,34.13
2023-01-19T17:16:31.697Z,40.97
2023-01-19T17:18:59.979Z,35.57
2023-01-19T17:21:26.973Z,34.20
2023-01-19T17:23:57.528Z,36.30
2023-01-19T17:26:31.353Z,38.80
2023-01-19T17:29:02.435Z,40.73
2023-01-19T17:31:29.936Z,42.23
2023-01-19T17:33:56.810Z,46.70
2023-01-19T17:36:25.454Z,40.63
2023-01-19T17:38:53.942Z,38.17
2023-01-19T17:41:23.335Z,42.77
2023-01-19T17:43:52.150Z,40.93
2023-01-19T17:46:20.737Z,48.77
2023-01-19T17:48:54.653Z,45.60
2023-01-19T17:51:22.887Z,42.57
2023-01-19T17:53:49.974Z,44.93
2023-01-19T17:56:21.551Z,46.30
2023-01-19T17:58:48.937Z,41.27
2023-01-19T18:01:18.822Z,46.27
2023-01-19T18:03:52.782Z,45.00
2023-01-19T18:06:19.856Z,54.17
2023-01-19T18:08:47.387Z,45.47
2023-01-19T18:11:14.933Z,50.40
2023-01-19T18:13:43.550Z,48.93
2023-01-19T18:16:15.296Z,46.70
2023-01-19T18:18:42.598Z,48.03
2023-01-19T18:21:11.136Z,47.60
2023-01-19T18:23:46.110Z,44.97
2023-01-19T18:26:17.428Z,53.90
2023-01-19T18:28:44.317Z,46.60
2023-01-19T18:31:19.212Z,50.03
2023-01-19T18:33:47.331Z,49.07
2023-01-19T18:36:14.172Z,50.50
2023-01-19T18:38:51.786Z,45.77
2023-01-19T18:41:20.646Z,54.07
2023-01-19T18:43:47.896Z,44.23
2023-01-19T18:46:18.575Z,67.87
2023-01-19T18:48:46.132Z,70.87
2023-01-19T18:51:14.932Z,57.23
2023-01-19T18:53:43.864Z,51.87
2023-01-19T18:56:15.283Z,50.20
2023-01-19T18:58:45.159Z,57.00
2023-01-19T19:01:22.574Z,57.13
2023-01-19T19:03:49.588Z,63.07
2023-01-19T19:06:18.528Z,55.23
2023-01-19T19:08:47.239Z,61.20
2023-01-19T19:11:14.306Z,70.27
2023-01-19T19:13:43.677Z,60.00
2023-01-19T19:16:11.786Z,62.23
2023-01-19T19:18:44.290Z,79.23
2023-01-19T19:21:14.342Z,63.27
2023-01-19T19:23:43.017Z,61.07
2023-01-19T19:26:12.995Z,60.67
2023-01-19T19:28:46.800Z,55.33
2023-01-19T19:31:15.720Z,55.73
2023-01-19T19:33:42.607Z,58.83
2023-01-19T19:36:16.833Z,52.30
2023-01-19T19:38:44.783Z,54.57
2023-01-19T19:41:12.898Z,57.10
2023-01-19T19:43:39.642Z,61.67
2023-01-19T19:46:08.836Z,54.63
2023-01-19T19:48:38.169Z,54.77
2023-01-19T19:51:19.016Z,53.90
2023-01-19T19:53:47.493Z,62.23
2023-01-19T19:56:15.471Z,58.13
2023-01-19T19:58:42.879Z,57.50
2023-01-19T20:01:11.477Z,60.80
2023-01-19T20:03:38.431Z,60.17
2023-01-19T20:06:14.174Z,65.13
2023-01-19T20:08:43.648Z,52.90
2023-01-19T20:11:16.285Z,55.93
2023-01-19T20:13:45.997Z,65.30
2023-01-19T20:16:15.538Z,59.80
2023-01-19T20:18:43.578Z,56.90
2023-01-19T20:21:15.429Z,59.93
2023-01-19T20:23:45.957Z,61.90
2023-01-19T20:26:15.214Z,53.57
2023-01-19T20:28:42.282Z,61.30
2023-01-19T20:31:17.321Z,62.07
2023-01-19T20:33:44.147Z,61.97
2023-01-19T20:36:11.642Z,58.07
2023-01-19T20:38:39.379Z,60.37
2023-01-19T20:41:09.200Z,53.70
2023-01-19T20:43:36.534Z,58.53
2023-01-19T20:46:03.639Z,62.10
2023-01-19T20:48:32.485Z,61.10
2023-01-19T20:51:00.158Z,61.63
2023-01-19T20:53:27.314Z,58.23
2023-01-19T20:55:54.350Z,60.03
2023-01-19T20:58:21.680Z,64.17
2023-01-19T21:00:50.526Z,56.73
2023-01-19T21:03:17.586Z,58.93
2023-01-19T21:05:47.269Z,58.60
2023-01-19T21:08:14.846Z,59.70
2023-01-19T21:10:42.071Z,53.53
2023-01-19T21:13:08.746Z,55.40
2023-01-19T21:15:35.353Z,56.33
2023-01-19T21:18:02.051Z,51.80
2023-01-19T21:20:29.897Z,58.23
2023-01-19T21:22:57.159Z,58.57
2023-01-19T21:25:23.775Z,50.00
2023-01-19T21:27:50.970Z,55.37
2023-01-19T21:30:22.719Z,48.63
2023-01-19T21:32:59.831Z,57.27
2023-01-19T21:35:26.473Z,55.20
2023-01-19T21:37:55.590Z,61.77
2023-01-19T21:40:32.234Z,61.33
2023-01-19T21:42:58.928Z,60.13
2023-01-19T21:45:25.576Z,60.67
2023-01-19T21:47:52.215Z,60.27
2023-01-19T21:50:23.695Z,56.40
2023-01-19T21:52:55.065Z,56.50
2023-01-19T21:55:24.679Z,51.40
2023-01-19T21:57:54.549Z,61.80
2023-01-19T22:00:30.053Z,68.47
2023-01-19T22:03:04.968Z,62.43
2023-01-19T22:05:36.737Z,61.83
2023-01-19T22:08:04.786Z,57.00
2023-01-19T22:10:40.289Z,54.93
2023-01-19T22:13:07.719Z,58.27
2023-01-19T22:15:34.347Z,49.83
2023-01-19T22:18:05.706Z,52.97
2023-01-19T22:20:32.368Z,55.57
2023-01-19T22:22:59.163Z,50.57
2023-01-19T22:25:27.817Z,55.50
2023-01-19T22:27:56.428Z,67.80
2023-01-19T22:30:26.876Z,58.70
2023-01-19T22:32:53.636Z,55.30
2023-01-19T22:35:23.785Z,50.13
2023-01-19T22:37:57.905Z,49.47
2023-01-19T22:40:24.567Z,50.03
2023-01-19T22:42:53.680Z,55.93
2023-01-19T22:45:29.229Z,55.90
2023-01-19T22:47:55.840Z,49.17
2023-01-19T22:50:25.434Z,54.30
2023-01-19T22:53:01.146Z,52.23
2023-01-19T22:55:29.872Z,60.07
2023-01-19T22:57:56.505Z,55.23
2023-01-19T23:00:41.387Z,55.57
2023-01-19T23:03:10.450Z,55.67
2023-01-19T23:05:37.163Z,57.97
2023-01-19T23:08:03.985Z,56.57
2023-01-19T23:10:31.015Z,55.70
2023-01-19T23:12:57.619Z,56.17
2023-01-19T23:15:25.810Z,57.63
2023-01-19T23:17:53.553Z,49.57
2023-01-19T23:20:22.965Z,61.20
2023-01-19T23:22:49.620Z,58.83
2023-01-19T23:25:22.060Z,53.80
2023-01-19T23:27:55.956Z,53.33
2023-01-19T23:30:29.922Z,61.50
2023-01-19T23:32:56.567Z,47.77
2023-01-19T23:35:23.168Z,50.70
2023-01-19T23:37:50.113Z,50.07
2023-01-19T23:40:21.915Z,56.27
2023-01-19T23:42:53.948Z,58.33
2023-01-19T23:45:22.653Z,50.93
2023-01-19T23:47:49.256Z,56.47
2023-01-19T23:50:18.070Z,59.33
2023-01-19T23:52:44.738Z,47.50
2023-01-19T23:55:11.918Z,49.70
2023-01-19T23:57:38.647Z,51.37
